createdAt,value
2018-10-03T00:01:57.724Z,6.20
2018-10-03T00:04:28.310Z,6.92
2018-10-03T00:06:58.895Z,6.35
2018-10-03T00:09:29.475Z,6.25
2018-10-03T00:12:00.027Z,6.05
2018-10-03T00:14:30.599Z,5.17
2018-10-03T00:17:01.134Z,6.62
2018-10-03T00:19:31.719Z,6.33
2018-10-03T00:22:02.644Z,6.33
2018-10-03T00:24:33.220Z,6.60
2018-10-03T00:27:03.960Z,6.35
2018-10-03T00:29:34.742Z,7.58
2018-10-03T00:32:05.315Z,7.62
2018-10-03T00:34:35.899Z,7.00
2018-10-03T00:37:06.776Z,6.60
2018-10-03T00:39:37.354Z,6.70
2018-10-03T00:42:08.140Z,6.65
2018-10-03T00:44:38.720Z,7.53
2018-10-03T00:47:09.275Z,8.30
2018-10-03T00:49:40.054Z,7.53
2018-10-03T00:52:10.815Z,7.67
2018-10-03T00:54:41.387Z,7.92
2018-10-03T00:57:11.996Z,7.35
2018-10-03T00:59:42.551Z,8.10
2018-10-03T01:02:13.462Z,7.55
2018-10-03T01:04:44.015Z,7.92
2018-10-03T01:07:14.597Z,7.55
2018-10-03T01:09:45.143Z,8.03
2018-10-03T01:12:15.715Z,8.28
2018-10-03T01:14:46.268Z,8.48
2018-10-03T01:17:16.855Z,7.78
2018-10-03T01:19:47.439Z,9.58
2018-10-03T01:22:18.223Z,8.88
2018-10-03T01:24:49.030Z,9.20
2018-10-03T01:27:19.644Z,8.90
2018-10-03T01:29:50.200Z,10.20
2018-10-03T01:32:20.775Z,9.73
2018-10-03T01:34:51.343Z,10.13
2018-10-03T01:37:21.951Z,10.25
2018-10-03T01:39:52.524Z,9.75
2018-10-03T01:42:23.132Z,9.65
2018-10-03T01:44:53.696Z,10.20
2018-10-03T01:47:24.288Z,10.60
2018-10-03T01:49:54.838Z,11.68
2018-10-03T01:52:25.452Z,11.28
2018-10-03T01:54:56.015Z,11.83
2018-10-03T01:57:26.632Z,10.30
2018-10-03T01:59:57.403Z,11.78
2018-10-03T02:02:27.997Z,10.95
2018-10-03T02:04:58.555Z,10.78
2018-10-03T02:07:29.148Z,12.82
2018-10-03T02:10:00.171Z,13.32
2018-10-03T02:12:30.737Z,15.13
2018-10-03T02:15:01.508Z,14.60
2018-10-03T02:17:32.082Z,14.83
2018-10-03T02:20:03.184Z,13.38
2018-10-03T02:22:33.766Z,14.38
2018-10-03T02:25:04.363Z,13.62
2018-10-03T02:27:34.927Z,12.65
2018-10-03T02:30:06.052Z,12.23
2018-10-03T02:32:36.827Z,11.85
2018-10-03T02:35:07.611Z,10.58
2018-10-03T02:37:38.195Z,10.38
2018-10-03T02:40:08.776Z,9.60
2018-10-03T02:42:39.371Z,9.60
2018-10-03T02:45:10.105Z,9.13
2018-10-03T02:47:40.687Z,7.95
2018-10-03T02:50:11.443Z,8.15
2018-10-03T02:52:42.027Z,7.85
2018-10-03T02:55:12.825Z,8.55
2018-10-03T02:57:43.611Z,8.33
2018-10-03T03:00:14.196Z,8.48
2018-10-03T03:02:44.779Z,7.75
2018-10-03T03:05:15.318Z,8.33
2018-10-03T03:07:45.896Z,8.70
2018-10-03T03:10:16.456Z,8.45
2018-10-03T03:12:47.049Z,7.90
2018-10-03T03:15:17.633Z,8.53
2018-10-03T03:17:48.375Z,8.28
2018-10-03T03:20:18.985Z,8.55
2018-10-03T03:22:49.735Z,8.93
2018-10-03T03:25:20.313Z,8.90
2018-10-03T03:27:51.047Z,9.73
2018-10-03T03:30:21.615Z,9.73
2018-10-03T03:32:52.171Z,10.15
2018-10-03T03:35:22.791Z,10.68
2018-10-03T03:37:53.347Z,10.05
2018-10-03T03:40:23.934Z,10.72
2018-10-03T03:42:54.727Z,11.30
2018-10-03T03:45:25.343Z,10.98
2018-10-03T03:47:55.874Z,11.78
2018-10-03T03:50:26.782Z,12.00
2018-10-03T03:52:57.350Z,11.65
2018-10-03T03:55:27.939Z,10.85
2018-10-03T03:57:58.524Z,12.05
2018-10-03T04:00:29.291Z,12.85
2018-10-03T04:02:59.862Z,11.22
2018-10-03T04:05:30.423Z,11.35
2018-10-03T04:08:00.995Z,12.03
2018-10-03T04:10:31.556Z,11.60
2018-10-03T04:13:02.156Z,12.10
2018-10-03T04:15:32.724Z,11.25
2018-10-03T04:18:03.463Z,10.90
2018-10-03T04:20:34.019Z,11.18
2018-10-03T04:23:04.612Z,11.50
2018-10-03T04:25:35.176Z,11.38
2018-10-03T04:28:06.107Z,11.68
2018-10-03T04:30:37.066Z,10.90
2018-10-03T04:33:07.638Z,10.55
2018-10-03T04:35:38.285Z,10.53
2018-10-03T04:38:09.343Z,9.65
2018-10-03T04:40:40.243Z,8.30
2018-10-03T04:43:10.871Z,9.73
2018-10-03T04:45:41.431Z,8.75
2018-10-03T04:48:13.253Z,9.23
2018-10-03T04:50:43.952Z,7.70
2018-10-03T04:53:14.539Z,8.70
2018-10-03T04:55:45.124Z,8.73
2018-10-03T04:58:15.934Z,8.60
2018-10-03T05:00:53.337Z,8.75
2018-10-03T05:03:24.259Z,7.37
2018-10-03T05:05:54.824Z,7.00
2018-10-03T05:08:25.416Z,6.40
2018-10-03T05:10:55.986Z,6.10
2018-10-03T05:13:26.535Z,6.42
2018-10-03T05:15:57.656Z,5.67
2018-10-03T05:18:28.220Z,5.72
2018-10-03T05:20:58.804Z,4.70
2018-10-03T05:23:29.369Z,5.25
2018-10-03T05:26:00.276Z,4.72
2018-10-03T05:31:08.045Z,5.17
2018-10-03T05:33:38.603Z,4.17
2018-10-03T05:36:09.174Z,4.33
2018-10-03T05:38:39.726Z,4.70
2018-10-03T05:41:10.307Z,3.92
2018-10-03T05:43:40.887Z,3.92
2018-10-03T05:46:11.461Z,4.17
2018-10-03T05:48:42.319Z,3.75
2018-10-03T05:51:13.044Z,3.60
2018-10-03T05:53:43.604Z,3.98
2018-10-03T05:56:14.192Z,3.70
2018-10-03T05:58:44.780Z,3.92
2018-10-03T06:01:15.351Z,4.33
2018-10-03T06:03:45.940Z,3.92
2018-10-03T06:06:16.507Z,3.37
2018-10-03T06:08:47.083Z,4.00
2018-10-03T06:11:17.663Z,3.50
2018-10-03T06:13:49.987Z,3.83
2018-10-03T06:16:20.602Z,3.98
2018-10-03T06:18:51.569Z,4.15
2018-10-03T06:21:22.359Z,4.00
2018-10-03T06:23:53.229Z,3.70
2018-10-03T06:26:23.828Z,4.17
2018-10-03T06:28:54.389Z,4.17
2018-10-03T06:31:25.176Z,4.55
2018-10-03T06:33:55.964Z,3.90
2018-10-03T06:36:26.548Z,4.40
2018-10-03T06:38:57.099Z,3.87
2018-10-03T06:41:27.743Z,3.50
2018-10-03T06:43:58.465Z,3.98
2018-10-03T06:46:29.033Z,5.37
2018-10-03T06:48:59.580Z,4.87
2018-10-03T06:51:30.167Z,3.95
2018-10-03T06:54:00.855Z,4.95
2018-10-03T06:56:31.639Z,4.58
2018-10-03T06:59:02.244Z,4.03
2018-10-03T07:01:32.829Z,4.12
2018-10-03T07:04:03.372Z,4.95
2018-10-03T07:06:34.017Z,4.03
2018-10-03T07:09:06.618Z,4.40
2018-10-03T07:11:37.575Z,3.92
2018-10-03T07:14:08.492Z,4.10
2018-10-03T07:16:39.292Z,3.95
2018-10-03T07:19:09.911Z,6.25
2018-10-03T07:21:40.495Z,4.75
2018-10-03T07:24:11.119Z,4.62
2018-10-03T07:26:42.181Z,4.05
2018-10-03T07:29:13.163Z,4.05
2018-10-03T07:31:43.735Z,3.92
2018-10-03T07:34:14.291Z,4.03
2018-10-03T07:36:45.417Z,3.85
2018-10-03T07:39:15.980Z,3.95
2018-10-03T07:41:46.545Z,4.45
2018-10-03T07:44:17.111Z,4.15
2018-10-03T07:46:47.675Z,4.40
2018-10-03T07:49:18.275Z,4.35
2018-10-03T07:51:50.306Z,4.70
2018-10-03T07:54:22.659Z,3.77
2018-10-03T07:56:54.746Z,4.05
2018-10-03T07:59:27.120Z,3.98
2018-10-03T08:01:58.944Z,4.35
2018-10-03T08:04:30.971Z,3.87
2018-10-03T08:07:02.877Z,4.78
2018-10-03T08:09:35.178Z,3.80
2018-10-03T08:12:05.796Z,3.98
2018-10-03T08:14:36.335Z,3.62
2018-10-03T08:17:07.271Z,4.08
2018-10-03T08:19:37.877Z,3.80
2018-10-03T08:22:08.472Z,3.77
2018-10-03T08:24:39.080Z,3.83
2018-10-03T08:27:09.803Z,3.90
2018-10-03T08:29:40.911Z,3.62
2018-10-03T08:32:11.503Z,3.10
2018-10-03T08:34:42.264Z,4.80
2018-10-03T08:37:12.852Z,3.60
2018-10-03T08:39:43.420Z,4.35
2018-10-03T08:42:14.022Z,4.40
2018-10-03T08:44:44.915Z,4.20
2018-10-03T08:47:15.642Z,4.50
2018-10-03T08:49:46.207Z,4.10
2018-10-03T08:52:16.845Z,3.67
2018-10-03T08:54:47.427Z,3.90
2018-10-03T08:57:18.004Z,3.60
2018-10-03T08:59:48.588Z,3.85
2018-10-03T09:02:19.591Z,4.03
2018-10-03T09:04:50.167Z,3.42
2018-10-03T09:07:20.760Z,3.47
2018-10-03T09:09:51.423Z,3.37
2018-10-03T09:12:22.184Z,3.85
2018-10-03T09:14:52.755Z,4.17
2018-10-03T09:17:23.315Z,3.15
2018-10-03T09:19:53.889Z,4.58
2018-10-03T09:22:24.676Z,2.85
2018-10-03T09:24:55.268Z,3.33
2018-10-03T09:27:25.842Z,3.80
2018-10-03T09:29:56.427Z,3.98
2018-10-03T09:32:26.994Z,3.67
2018-10-03T09:34:57.594Z,3.00
2018-10-03T09:37:28.367Z,4.58
2018-10-03T09:39:58.977Z,3.45
2018-10-03T09:42:29.707Z,3.40
2018-10-03T09:45:00.487Z,3.47
2018-10-03T09:47:31.043Z,3.33
2018-10-03T09:50:01.644Z,3.30
2018-10-03T09:52:32.209Z,3.67
2018-10-03T09:55:02.805Z,3.60
2018-10-03T09:57:33.421Z,3.05
2018-10-03T10:00:04.747Z,3.00
2018-10-03T10:02:35.637Z,3.67
2018-10-03T10:05:06.754Z,3.72
2018-10-03T10:07:37.390Z,3.80
2018-10-03T10:10:08.211Z,2.95
2018-10-03T10:12:38.936Z,3.25
2018-10-03T10:15:09.516Z,3.33
2018-10-03T10:17:40.073Z,3.83
2018-10-03T10:20:10.855Z,2.62
2018-10-03T10:22:42.292Z,2.20
2018-10-03T10:25:14.580Z,2.87
2018-10-03T10:27:45.176Z,3.45
2018-10-03T10:30:15.960Z,2.50
2018-10-03T10:32:46.556Z,3.55
2018-10-03T10:35:17.296Z,2.40
2018-10-03T10:37:47.912Z,2.52
2018-10-03T10:40:18.696Z,2.45
2018-10-03T10:42:49.398Z,2.37
2018-10-03T10:45:19.967Z,3.35
2018-10-03T10:47:50.636Z,2.70
2018-10-03T10:50:21.407Z,2.58
2018-10-03T10:52:52.159Z,2.30
2018-10-03T10:55:22.740Z,2.83
2018-10-03T10:57:53.287Z,2.40
2018-10-03T11:00:24.060Z,2.58
2018-10-03T11:02:54.931Z,2.60
2018-10-03T11:05:25.767Z,2.45
2018-10-03T11:07:56.503Z,2.40
2018-10-03T11:10:27.391Z,2.08
2018-10-03T11:12:58.480Z,2.33
2018-10-03T11:15:29.093Z,1.85
2018-10-03T11:18:00.445Z,2.15
2018-10-03T11:20:30.993Z,2.50
2018-10-03T11:23:01.582Z,2.75
2018-10-03T11:25:32.368Z,2.40
2018-10-03T11:28:02.949Z,3.02
2018-10-03T11:30:33.739Z,2.52
2018-10-03T11:33:04.328Z,2.35
2018-10-03T11:35:35.099Z,3.15
2018-10-03T11:38:06.233Z,2.40
2018-10-03T11:40:37.054Z,2.35
2018-10-03T11:43:07.835Z,3.05
2018-10-03T11:45:38.602Z,2.80
2018-10-03T11:48:09.193Z,2.30
2018-10-03T11:50:40.016Z,2.52
2018-10-03T11:53:10.715Z,2.40
2018-10-03T11:55:41.304Z,2.60
2018-10-03T11:58:11.855Z,2.83
2018-10-03T12:00:42.776Z,2.30
2018-10-03T12:03:13.341Z,2.72
2018-10-03T12:05:44.110Z,2.10
2018-10-03T12:08:14.672Z,2.60
2018-10-03T12:10:45.248Z,2.83
2018-10-03T12:13:15.867Z,2.72
2018-10-03T12:15:46.796Z,2.45
2018-10-03T12:18:17.393Z,2.45
2018-10-03T12:20:48.210Z,3.12
2018-10-03T12:23:18.783Z,2.08
2018-10-03T12:25:49.383Z,2.58
2018-10-03T12:28:20.139Z,2.55
2018-10-03T12:30:50.747Z,2.10
2018-10-03T12:33:21.342Z,2.42
2018-10-03T12:35:52.103Z,2.62
2018-10-03T12:38:22.692Z,2.42
2018-10-03T12:40:53.252Z,2.90
2018-10-03T12:46:00.808Z,2.72
2018-10-03T12:48:31.379Z,2.60
2018-10-03T12:51:01.997Z,2.72
2018-10-03T12:53:32.929Z,3.35
2018-10-03T12:56:03.704Z,3.50
2018-10-03T12:58:34.279Z,2.65
2018-10-03T13:01:05.409Z,2.72
2018-10-03T13:03:35.967Z,3.02
2018-10-03T13:06:06.876Z,2.50
2018-10-03T13:08:37.522Z,3.33
2018-10-03T13:11:08.294Z,2.67
2018-10-03T13:13:38.883Z,2.98
2018-10-03T13:16:09.664Z,2.70
2018-10-03T13:18:40.252Z,2.77
2018-10-03T13:21:11.026Z,2.72
2018-10-03T13:23:41.806Z,2.08
2018-10-03T13:26:12.639Z,2.75
2018-10-03T13:28:43.347Z,2.65
2018-10-03T13:31:13.939Z,2.65
2018-10-03T13:33:44.495Z,2.67
2018-10-03T13:36:15.419Z,3.10
2018-10-03T13:38:45.970Z,3.20
2018-10-03T13:41:16.560Z,2.60
2018-10-03T13:43:47.327Z,2.75
2018-10-03T13:46:18.115Z,2.37
2018-10-03T13:48:48.670Z,3.00
2018-10-03T13:51:19.264Z,3.50
2018-10-03T13:53:49.824Z,2.92
2018-10-03T13:56:20.431Z,3.40
2018-10-03T13:58:51.173Z,2.95
2018-10-03T14:01:21.772Z,3.87
2018-10-03T14:03:52.673Z,3.17
2018-10-03T14:06:23.225Z,2.52
2018-10-03T14:08:53.806Z,2.77
2018-10-03T14:11:24.605Z,3.05
2018-10-03T14:13:55.395Z,2.37
2018-10-03T14:16:25.956Z,3.35
2018-10-03T14:18:56.525Z,2.62
2018-10-03T14:21:27.253Z,2.98
2018-10-03T14:23:58.030Z,2.60
2018-10-03T14:26:28.588Z,2.67
2018-10-03T14:28:59.315Z,2.87
2018-10-03T14:31:29.872Z,3.20
2018-10-03T14:34:00.451Z,2.60
2018-10-03T14:36:30.983Z,2.47
2018-10-03T14:39:01.571Z,3.00
2018-10-03T14:41:32.126Z,2.95
2018-10-03T14:44:02.738Z,2.77
2018-10-03T14:46:33.378Z,2.72
2018-10-03T14:49:04.109Z,4.22
2018-10-03T14:51:34.658Z,3.30
2018-10-03T14:54:05.233Z,4.10
2018-10-03T14:56:35.775Z,2.90
2018-10-03T14:59:07.040Z,2.25
2018-10-03T15:01:37.622Z,2.95
2018-10-03T15:04:08.717Z,2.70
2018-10-03T15:06:39.276Z,3.35
2018-10-03T15:09:10.560Z,3.30
2018-10-03T15:11:41.153Z,2.70
2018-10-03T15:14:11.724Z,2.92
2018-10-03T15:16:42.388Z,2.98
2018-10-03T15:19:12.942Z,2.55
2018-10-03T15:21:43.864Z,2.67
2018-10-03T15:24:14.515Z,3.05
2018-10-03T15:26:45.272Z,3.22
2018-10-03T15:29:15.835Z,2.67
2018-10-03T15:31:46.383Z,2.60
2018-10-03T15:34:17.302Z,3.05
2018-10-03T15:36:48.076Z,3.12
2018-10-03T15:39:18.987Z,2.65
2018-10-03T15:41:49.585Z,3.02
2018-10-03T15:44:20.163Z,2.77
2018-10-03T15:46:50.719Z,3.42
2018-10-03T15:49:21.279Z,2.77
2018-10-03T15:51:51.832Z,2.62
2018-10-03T15:54:22.428Z,3.40
2018-10-03T15:56:52.971Z,3.17
2018-10-03T15:59:23.880Z,1.98
2018-10-03T16:01:54.783Z,2.87
2018-10-03T16:04:25.332Z,2.42
2018-10-03T16:06:55.900Z,3.05
2018-10-03T16:09:26.460Z,2.67
2018-10-03T16:11:57.223Z,2.70
2018-10-03T16:14:28.027Z,2.77
2018-10-03T16:16:58.593Z,2.50
2018-10-03T16:19:29.388Z,3.12
2018-10-03T16:21:59.943Z,2.55
2018-10-03T16:24:30.528Z,2.50
2018-10-03T16:27:01.086Z,2.60
2018-10-03T16:29:31.650Z,2.70
2018-10-03T16:32:02.406Z,3.12
2018-10-03T16:34:32.990Z,3.00
2018-10-03T16:37:03.549Z,2.80
2018-10-03T16:39:34.132Z,2.67
2018-10-03T16:42:04.907Z,3.33
2018-10-03T16:44:35.685Z,3.12
2018-10-03T16:47:06.391Z,3.05
2018-10-03T16:49:36.967Z,3.90
2018-10-03T16:52:07.571Z,3.35
2018-10-03T16:54:38.152Z,2.98
2018-10-03T16:57:08.703Z,3.37
2018-10-03T16:59:39.397Z,2.95
2018-10-03T17:02:09.992Z,3.37
2018-10-03T17:04:40.581Z,2.55
2018-10-03T17:07:11.339Z,2.40
2018-10-03T17:09:41.908Z,3.25
2018-10-03T17:12:12.476Z,2.77
2018-10-03T17:14:43.043Z,3.12
2018-10-03T17:17:13.616Z,2.60
2018-10-03T17:19:44.206Z,4.35
2018-10-03T17:22:14.791Z,3.55
2018-10-03T17:24:45.344Z,3.70
2018-10-03T17:27:15.911Z,3.85
2018-10-03T17:29:46.512Z,3.77
2018-10-03T17:32:17.071Z,5.47
2018-10-03T17:34:47.626Z,5.90
2018-10-03T17:37:18.212Z,5.75
2018-10-03T17:39:55.210Z,5.80
2018-10-03T17:42:25.823Z,6.33
2018-10-03T17:44:56.409Z,6.75
2018-10-03T17:47:27.177Z,8.40
2018-10-03T17:49:57.966Z,8.55
2018-10-03T17:52:28.527Z,7.12
2018-10-03T17:54:59.305Z,7.65
2018-10-03T17:57:29.859Z,7.50
2018-10-03T18:00:00.431Z,7.08
2018-10-03T18:02:30.964Z,6.17
2018-10-03T18:05:01.908Z,7.28
2018-10-03T18:07:32.526Z,6.25
2018-10-03T18:10:03.779Z,6.10
2018-10-03T18:12:34.537Z,6.97
2018-10-03T18:15:05.114Z,6.40
2018-10-03T18:17:35.656Z,6.95
2018-10-03T18:20:06.455Z,5.83
2018-10-03T18:22:37.193Z,6.70
2018-10-03T18:25:07.819Z,5.75
2018-10-03T18:27:38.607Z,5.78
2018-10-03T18:30:09.371Z,5.83
2018-10-03T18:32:39.937Z,5.42
2018-10-03T18:35:10.706Z,5.75
2018-10-03T18:37:41.755Z,5.58
2018-10-03T18:40:12.308Z,5.80
2018-10-03T18:42:42.915Z,6.30
2018-10-03T18:45:13.523Z,5.78
2018-10-03T18:47:44.264Z,5.75
2018-10-03T18:50:14.829Z,5.55
2018-10-03T18:52:45.406Z,5.85
2018-10-03T18:55:15.960Z,6.08
2018-10-03T18:57:46.543Z,7.00
2018-10-03T19:00:17.096Z,8.33
2018-10-03T19:02:47.663Z,6.92
2018-10-03T19:05:18.228Z,8.73
2018-10-03T19:07:49.351Z,10.58
2018-10-03T19:10:19.928Z,10.03
2018-10-03T19:12:51.028Z,8.68
2018-10-03T19:15:21.579Z,8.00
2018-10-03T19:17:52.368Z,7.08
2018-10-03T19:20:23.247Z,6.55
2018-10-03T19:22:54.029Z,6.42
2018-10-03T19:25:24.594Z,6.20
2018-10-03T19:27:55.168Z,6.33
2018-10-03T19:30:25.723Z,6.67
2018-10-03T19:32:56.309Z,6.00
2018-10-03T19:35:26.867Z,6.40
2018-10-03T19:37:57.447Z,5.12
2018-10-03T19:40:28.015Z,5.92
2018-10-03T19:42:58.627Z,5.90
2018-10-03T19:45:29.224Z,6.50
2018-10-03T19:48:00.051Z,5.25
2018-10-03T19:50:30.752Z,6.80
2018-10-03T19:53:01.513Z,6.12
2018-10-03T19:55:32.276Z,6.45
2018-10-03T19:58:02.847Z,6.20
2018-10-03T20:00:33.431Z,6.83
2018-10-03T20:03:04.213Z,6.22
2018-10-03T20:05:34.772Z,6.65
2018-10-03T20:08:05.356Z,5.83
2018-10-03T20:10:35.924Z,7.15
2018-10-03T20:13:06.497Z,7.00
2018-10-03T20:15:37.063Z,5.78
2018-10-03T20:18:07.844Z,6.47
2018-10-03T20:20:38.423Z,6.28
2018-10-03T20:23:09.041Z,6.47
2018-10-03T20:25:40.144Z,6.22
2018-10-03T20:28:10.929Z,5.90
2018-10-03T20:30:41.493Z,5.62
2018-10-03T20:33:12.075Z,6.15
2018-10-03T20:35:42.636Z,5.97
2018-10-03T20:38:13.426Z,6.70
2018-10-03T20:40:44.196Z,6.05
2018-10-03T20:43:14.812Z,6.58
2018-10-03T20:45:45.366Z,6.40
2018-10-03T20:48:15.996Z,6.60
2018-10-03T20:50:46.706Z,5.47
2018-10-03T20:53:17.296Z,6.58
2018-10-03T20:55:47.847Z,5.72
2018-10-03T20:58:18.440Z,6.60
2018-10-03T21:00:49.204Z,5.90
2018-10-03T21:03:19.776Z,6.85
2018-10-03T21:05:50.340Z,6.30
2018-10-03T21:08:20.920Z,6.80
2018-10-03T21:10:51.469Z,6.60
2018-10-03T21:13:22.061Z,5.15
2018-10-03T21:15:52.642Z,6.08
2018-10-03T21:18:23.227Z,5.95
2018-10-03T21:20:53.816Z,5.70
2018-10-03T21:23:24.420Z,6.75
2018-10-03T21:25:55.002Z,5.97
2018-10-03T21:28:25.747Z,5.58
2018-10-03T21:31:02.988Z,6.22
2018-10-03T21:33:33.544Z,6.28
2018-10-03T21:36:04.135Z,6.62
2018-10-03T21:38:34.704Z,6.00
2018-10-03T21:41:06.161Z,6.05
2018-10-03T21:43:36.764Z,6.40
2018-10-03T21:46:07.960Z,6.80
2018-10-03T21:48:38.590Z,6.10
2018-10-03T21:51:09.143Z,6.95
2018-10-03T21:53:39.725Z,6.05
2018-10-03T21:56:10.300Z,6.85
2018-10-03T21:58:40.883Z,6.60
2018-10-03T22:01:11.442Z,5.97
2018-10-03T22:03:42.018Z,6.30
2018-10-03T22:06:12.598Z,6.53
2018-10-03T22:08:43.166Z,6.20
2018-10-03T22:11:13.932Z,6.08
2018-10-03T22:13:44.512Z,5.97
2018-10-03T22:16:15.111Z,4.97
2018-10-03T22:18:45.691Z,6.60
2018-10-03T22:21:16.243Z,5.22
2018-10-03T22:23:48.732Z,5.92
2018-10-03T22:26:20.947Z,6.08
2018-10-03T22:28:53.145Z,5.80
2018-10-03T22:31:25.337Z,5.40
2018-10-03T22:33:56.829Z,5.85
2018-10-03T22:36:27.391Z,5.65
2018-10-03T22:38:57.941Z,6.58
2018-10-03T22:41:35.131Z,6.15
2018-10-03T22:44:06.404Z,5.83
2018-10-03T22:46:36.955Z,6.03
2018-10-03T22:49:07.559Z,6.20
2018-10-03T22:51:38.137Z,5.90
2018-10-03T22:54:08.702Z,5.42
2018-10-03T22:56:39.315Z,5.00
2018-10-03T22:59:09.892Z,5.50
2018-10-03T23:01:40.472Z,5.42
2018-10-03T23:04:11.373Z,5.58
2018-10-03T23:06:42.090Z,5.67
2018-10-03T23:09:12.655Z,5.47
2018-10-03T23:11:43.242Z,5.47
2018-10-03T23:14:13.796Z,5.25
2018-10-03T23:16:44.394Z,5.22
2018-10-03T23:19:15.492Z,5.60
2018-10-03T23:21:46.083Z,5.67
2018-10-03T23:26:53.647Z,5.53
2018-10-03T23:29:24.194Z,5.95
2018-10-03T23:31:54.772Z,4.97
2018-10-03T23:34:25.478Z,7.12
2018-10-03T23:36:56.240Z,4.87
2018-10-03T23:39:26.792Z,5.25
2018-10-03T23:41:57.471Z,5.78
2018-10-03T23:44:28.195Z,5.60
2018-10-03T23:46:59.084Z,5.80
2018-10-03T23:49:36.451Z,6.37
2018-10-03T23:52:07.743Z,5.87
2018-10-03T23:54:38.515Z,5.35
2018-10-03T23:57:09.076Z,5.45
2018-10-03T23:59:39.624Z,5.50
